createdAt,value
2022-10-09T00:01:26.325Z,98595.44
2022-10-09T00:03:56.451Z,98601.84
2022-10-09T00:06:32.206Z,98608.25
2022-10-09T00:09:01.811Z,98606.81
2022-10-09T00:11:30.794Z,98607.81
2022-10-09T00:13:58.071Z,98610.47
2022-10-09T00:16:26.739Z,98600.25
2022-10-09T00:18:54.461Z,98606.50
2022-10-09T00:21:29.748Z,98605.56
2022-10-09T00:23:59.805Z,98598.88
2022-10-09T00:26:28.098Z,98606.63
2022-10-09T00:28:55.539Z,98611.81
2022-10-09T00:31:42.222Z,98600.72
2022-10-09T00:34:08.915Z,98612.84
2022-10-09T00:36:35.631Z,98600.22
2022-10-09T00:39:02.590Z,98606.56
2022-10-09T00:41:31.381Z,98592.19
2022-10-09T00:44:02.336Z,98596.53
2022-10-09T00:46:51.267Z,98603.38
2022-10-09T00:49:34.460Z,98606.88
2022-10-09T00:52:07.401Z,98606.03
2022-10-09T00:54:39.345Z,98598.34
2022-10-09T00:57:06.981Z,98593.44
2022-10-09T00:59:34.953Z,98600.44
2022-10-09T01:02:01.879Z,98590.25
2022-10-09T01:04:28.679Z,98596.25
2022-10-09T01:07:16.697Z,98588.44
2022-10-09T01:10:06.940Z,98597.84
2022-10-09T01:13:14.492Z,98589.56
2022-10-09T01:16:17.414Z,98592.41
2022-10-09T01:19:25.990Z,98584.75
2022-10-09T01:22:30.361Z,98592.78
2022-10-09T01:25:07.434Z,98584.31
2022-10-09T01:27:37.707Z,98578.38
2022-10-09T01:30:11.618Z,98573.97
2022-10-09T01:32:48.472Z,98589.81
2022-10-09T01:35:16.799Z,98583.09
2022-10-09T01:37:47.027Z,98579.13
2022-10-09T01:40:17.472Z,98586.34
2022-10-09T01:42:47.010Z,98571.16
2022-10-09T01:45:15.635Z,98575.63
2022-10-09T01:47:43.206Z,98573.03
2022-10-09T01:50:29.102Z,98574.72
2022-10-09T01:53:08.617Z,98567.00
2022-10-09T01:55:56.372Z,98567.81
2022-10-09T01:58:48.657Z,98563.66
2022-10-09T02:01:24.497Z,98554.41
2022-10-09T02:03:54.354Z,98553.63
2022-10-09T02:06:21.673Z,98554.41
2022-10-09T02:08:53.008Z,98553.56
2022-10-09T02:11:19.778Z,98552.94
2022-10-09T02:13:52.847Z,98540.22
2022-10-09T02:16:46.946Z,98547.13
2022-10-09T02:19:40.901Z,98539.53
2022-10-09T02:22:14.774Z,98532.09
2022-10-09T02:24:42.671Z,98544.25
2022-10-09T02:27:12.612Z,98547.78
2022-10-09T02:29:43.044Z,98543.47
2022-10-09T02:32:10.961Z,98541.03
2022-10-09T02:34:37.881Z,98539.34
2022-10-09T02:37:05.653Z,98536.00
2022-10-09T02:39:32.487Z,98534.38
2022-10-09T02:41:59.163Z,98535.28
2022-10-09T02:44:26.024Z,98530.97
2022-10-09T02:46:53.336Z,98531.94
2022-10-09T02:49:20.162Z,98534.72
2022-10-09T02:51:46.874Z,98540.13
2022-10-09T02:54:13.797Z,98548.91
2022-10-09T02:56:40.511Z,98554.06
2022-10-09T02:59:07.429Z,98551.59
2022-10-09T03:01:34.461Z,98546.53
2022-10-09T03:04:01.377Z,98544.00
2022-10-09T03:06:29.374Z,98544.72
2022-10-09T03:08:56.424Z,98544.84
2022-10-09T03:11:27.135Z,98542.50
2022-10-09T03:13:54.439Z,98547.19
2022-10-09T03:16:24.879Z,98541.53
2022-10-09T03:18:53.487Z,98546.94
2022-10-09T03:21:23.874Z,98545.53
2022-10-09T03:23:52.253Z,98546.53
2022-10-09T03:26:25.263Z,98546.53
2022-10-09T03:28:54.114Z,98546.72
2022-10-09T03:31:51.966Z,98542.53
2022-10-09T03:34:12.492Z,98545.13
2022-10-09T03:36:39.660Z,98546.78
2022-10-09T03:39:06.391Z,98545.13
2022-10-09T03:41:33.114Z,98539.06
2022-10-09T03:43:59.825Z,98550.06
2022-10-09T03:46:26.693Z,98543.19
2022-10-09T03:48:53.554Z,98544.34
2022-10-09T03:51:20.241Z,98547.91
2022-10-09T03:53:46.949Z,98551.28
2022-10-09T03:56:13.643Z,98548.81
2022-10-09T03:58:40.346Z,98558.47
2022-10-09T04:01:07.108Z,98551.78
2022-10-09T04:03:33.853Z,98551.88
2022-10-09T04:06:00.588Z,98553.56
2022-10-09T04:08:27.599Z,98553.69
2022-10-09T04:10:59.557Z,98554.50
2022-10-09T04:13:26.683Z,98546.03
2022-10-09T04:15:54.547Z,98553.03
2022-10-09T04:18:21.707Z,98548.09
2022-10-09T04:20:54.489Z,98547.41
2022-10-09T04:23:26.356Z,98556.13
2022-10-09T04:25:55.381Z,98551.06
2022-10-09T04:28:25.538Z,98549.47
2022-10-09T04:30:52.750Z,98552.25
2022-10-09T04:33:20.209Z,98546.38
2022-10-09T04:35:52.403Z,98560.09
2022-10-09T04:38:20.493Z,98557.44
2022-10-09T04:41:03.897Z,98547.22
2022-10-09T04:43:32.531Z,98553.19
2022-10-09T04:45:59.340Z,98555.72
2022-10-09T04:48:26.181Z,98555.00
2022-10-09T04:50:52.930Z,98556.00
2022-10-09T04:53:19.795Z,98547.50
2022-10-09T04:55:46.656Z,98551.88
2022-10-09T04:58:14.221Z,98553.72
2022-10-09T05:00:46.323Z,98560.69
2022-10-09T05:03:13.382Z,98549.56
2022-10-09T05:05:40.155Z,98559.00
2022-10-09T05:08:06.885Z,98557.47
2022-10-09T05:10:33.721Z,98566.06
2022-10-09T05:13:00.479Z,98559.31
2022-10-09T05:15:27.620Z,98562.91
2022-10-09T05:17:54.476Z,98553.66
2022-10-09T05:20:21.306Z,98557.13
2022-10-09T05:22:48.578Z,98556.25
2022-10-09T05:25:15.622Z,98561.63
2022-10-09T05:27:42.319Z,98557.47
2022-10-09T05:30:10.079Z,98567.75
2022-10-09T05:32:36.878Z,98555.72
2022-10-09T05:35:04.344Z,98564.47
2022-10-09T05:37:31.278Z,98567.94
2022-10-09T05:39:57.978Z,98570.25
2022-10-09T05:42:24.718Z,98572.63
2022-10-09T05:44:51.452Z,98576.69
2022-10-09T05:47:19.598Z,98575.84
2022-10-09T05:49:46.858Z,98573.34
2022-10-09T05:52:13.726Z,98566.53
2022-10-09T05:54:41.819Z,98572.69
2022-10-09T05:57:09.690Z,98564.22
2022-10-09T05:59:36.409Z,98570.13
2022-10-09T06:02:03.720Z,98577.72
2022-10-09T06:04:30.531Z,98570.00
2022-10-09T06:06:57.289Z,98575.66
2022-10-09T06:09:25.591Z,98571.09
2022-10-09T06:11:54.580Z,98570.78
2022-10-09T06:14:22.151Z,98570.44
2022-10-09T06:16:49.671Z,98572.63
2022-10-09T06:19:19.314Z,98566.31
2022-10-09T06:21:47.043Z,98573.63
2022-10-09T06:24:28.306Z,98566.41
2022-10-09T06:26:56.912Z,98574.75
2022-10-09T06:29:23.893Z,98574.50
2022-10-09T06:31:50.579Z,98567.13
2022-10-09T06:34:17.448Z,98567.44
2022-10-09T06:36:44.197Z,98566.91
2022-10-09T06:39:11.236Z,98563.84
2022-10-09T06:41:38.152Z,98571.88
2022-10-09T06:44:10.813Z,98573.88
2022-10-09T06:46:41.969Z,98568.94
2022-10-09T06:49:10.732Z,98572.44
2022-10-09T06:51:38.469Z,98573.44
2022-10-09T06:54:11.802Z,98585.38
2022-10-09T06:56:38.718Z,98574.16
2022-10-09T06:59:07.519Z,98587.72
2022-10-09T07:01:34.577Z,98574.09
2022-10-09T07:04:08.955Z,98576.72
2022-10-09T07:06:40.146Z,98584.84
2022-10-09T07:09:11.311Z,98584.50
2022-10-09T07:11:44.793Z,98588.16
2022-10-09T07:14:14.068Z,98582.00
2022-10-09T07:16:45.123Z,98579.22
2022-10-09T07:19:13.974Z,98573.25
2022-10-09T07:21:44.555Z,98580.97
2022-10-09T07:24:12.512Z,98574.94
2022-10-09T07:26:44.672Z,98585.13
2022-10-09T07:29:15.434Z,98579.63
2022-10-09T07:31:42.315Z,98572.47
2022-10-09T07:34:09.066Z,98580.31
2022-10-09T07:36:36.038Z,98573.38
2022-10-09T07:39:04.694Z,98574.22
2022-10-09T07:41:31.859Z,98569.31
2022-10-09T07:43:58.949Z,98566.38
2022-10-09T07:46:33.298Z,98559.81
2022-10-09T07:49:00.866Z,98563.28
2022-10-09T07:51:29.618Z,98566.72
2022-10-09T07:53:57.252Z,98562.72
2022-10-09T07:56:37.750Z,98554.22
2022-10-09T07:59:11.769Z,98561.41
2022-10-09T08:01:39.274Z,98552.53
2022-10-09T08:04:06.877Z,98552.91
2022-10-09T08:06:34.479Z,98542.88
2022-10-09T08:09:04.390Z,98538.44
2022-10-09T08:11:31.796Z,98532.00
2022-10-09T08:13:58.682Z,98536.81
2022-10-09T08:16:27.398Z,98533.19
2022-10-09T08:18:59.688Z,98532.78
2022-10-09T08:21:28.458Z,98528.75
2022-10-09T08:23:58.282Z,98529.84
2022-10-09T08:26:28.258Z,98519.03
2022-10-09T08:29:05.706Z,98512.63
2022-10-09T08:31:32.960Z,98514.75
2022-10-09T08:34:02.584Z,98508.41
2022-10-09T08:36:30.274Z,98509.09
2022-10-09T08:38:57.081Z,98507.25
2022-10-09T08:41:32.597Z,98504.88
2022-10-09T08:44:13.609Z,98510.94
2022-10-09T08:46:49.452Z,98506.59
2022-10-09T08:49:41.798Z,98513.31
2022-10-09T08:52:52.753Z,98507.34
2022-10-09T08:55:35.671Z,98514.19
2022-10-09T08:58:05.309Z,98503.13
2022-10-09T09:00:53.231Z,98504.84
2022-10-09T09:03:46.618Z,98508.78
2022-10-09T09:06:53.941Z,98498.00
2022-10-09T09:09:38.485Z,98498.78
2022-10-09T09:12:29.689Z,98506.66
2022-10-09T09:15:18.447Z,98501.28
2022-10-09T09:18:32.800Z,98496.97
2022-10-09T09:21:09.714Z,98495.34
2022-10-09T09:23:46.244Z,98495.66
2022-10-09T09:26:17.947Z,98499.94
2022-10-09T09:28:48.736Z,98495.66
2022-10-09T09:31:29.480Z,98493.19
2022-10-09T09:34:10.916Z,98490.97
2022-10-09T09:36:51.608Z,98494.59
2022-10-09T09:42:19.958Z,98490.50
2022-10-09T09:44:59.348Z,98482.16
2022-10-09T09:47:44.214Z,98482.84
2022-10-09T09:50:28.600Z,98486.84
2022-10-09T09:53:04.980Z,98471.59
2022-10-09T09:55:34.221Z,98470.59
2022-10-09T09:58:06.566Z,98473.22
2022-10-09T10:00:34.757Z,98466.97
2022-10-09T10:03:15.685Z,98457.47
2022-10-09T10:05:44.766Z,98458.81
2022-10-09T10:08:34.122Z,98451.66
2022-10-09T10:11:06.172Z,98450.91
2022-10-09T10:13:45.840Z,98441.09
2022-10-09T10:16:38.030Z,98443.25
2022-10-09T10:19:06.405Z,98432.13
2022-10-09T10:21:49.343Z,98420.69
2022-10-09T10:24:27.604Z,98431.00
2022-10-09T10:27:07.318Z,98426.56
2022-10-09T10:29:41.344Z,98421.28
2022-10-09T10:32:38.499Z,98420.53
2022-10-09T10:35:26.119Z,98414.88
2022-10-09T10:38:06.690Z,98422.31
2022-10-09T10:40:41.846Z,98422.53
2022-10-09T10:43:14.949Z,98415.59
2022-10-09T10:46:04.357Z,98416.03
2022-10-09T10:48:52.651Z,98408.13
2022-10-09T10:51:44.771Z,98408.88
2022-10-09T10:54:44.714Z,98391.03
2022-10-09T10:57:26.030Z,98402.19
2022-10-09T11:00:06.680Z,98397.16
2022-10-09T11:02:49.029Z,98401.47
2022-10-09T11:05:22.703Z,98388.13
2022-10-09T11:08:21.674Z,98395.50
2022-10-09T11:11:27.919Z,98387.47
2022-10-09T11:14:47.480Z,98371.28
2022-10-09T11:17:16.928Z,98370.94
2022-10-09T11:20:03.579Z,98371.13
2022-10-09T11:22:49.908Z,98357.16
2022-10-09T11:25:51.479Z,98355.53
2022-10-09T11:28:45.690Z,98349.09
2022-10-09T11:31:44.969Z,98342.47
2022-10-09T11:34:32.206Z,98340.84
2022-10-09T11:37:02.382Z,98334.38
2022-10-09T11:39:32.459Z,98331.41
2022-10-09T11:42:00.439Z,98320.19
2022-10-09T11:44:49.398Z,98325.56
2022-10-09T11:48:00.646Z,98325.50
2022-10-09T11:50:48.195Z,98318.88
2022-10-09T11:53:19.556Z,98312.28
2022-10-09T11:55:48.161Z,98307.03
2022-10-09T11:58:25.089Z,98305.09
2022-10-09T12:00:56.495Z,98293.81
2022-10-09T12:03:34.547Z,98294.44
2022-10-09T12:06:09.394Z,98293.13
2022-10-09T12:08:38.814Z,98288.53
2022-10-09T12:11:19.808Z,98283.88
2022-10-09T12:13:52.245Z,98277.41
2022-10-09T12:16:45.273Z,98282.50
2022-10-09T12:19:24.817Z,98269.81
2022-10-09T12:22:02.322Z,98261.03
2022-10-09T12:25:02.237Z,98257.91
2022-10-09T12:27:36.467Z,98251.75
2022-10-09T12:30:12.816Z,98248.59
2022-10-09T12:32:56.738Z,98239.25
2022-10-09T12:35:32.881Z,98233.91
2022-10-09T12:37:59.634Z,98235.44
2022-10-09T12:40:31.331Z,98233.53
2022-10-09T12:43:06.023Z,98236.34
2022-10-09T12:45:33.712Z,98222.19
2022-10-09T12:48:12.112Z,98229.13
2022-10-09T12:50:39.777Z,98223.69
2022-10-09T12:53:32.064Z,98207.22
2022-10-09T12:56:00.825Z,98209.38
2022-10-09T12:58:38.765Z,98216.63
2022-10-09T13:01:13.488Z,98209.31
2022-10-09T13:04:03.299Z,98206.22
2022-10-09T13:06:48.570Z,98204.53
2022-10-09T13:09:22.115Z,98202.06
2022-10-09T13:12:05.941Z,98191.84
2022-10-09T13:14:43.702Z,98196.16
2022-10-09T13:17:25.543Z,98191.97
2022-10-09T13:19:55.498Z,98188.81
2022-10-09T13:22:31.013Z,98179.03
2022-10-09T13:24:59.390Z,98182.41
2022-10-09T13:27:32.149Z,98181.63
2022-10-09T13:30:00.490Z,98179.72
2022-10-09T13:32:27.910Z,98173.44
2022-10-09T13:34:55.152Z,98173.19
2022-10-09T13:37:24.158Z,98165.44
2022-10-09T13:39:57.002Z,98161.91
2022-10-09T13:42:30.049Z,98162.38
2022-10-09T13:44:57.291Z,98164.22
2022-10-09T13:47:24.910Z,98157.44
2022-10-09T13:49:51.943Z,98148.97
2022-10-09T13:52:18.854Z,98137.28
2022-10-09T13:54:45.594Z,98145.13
2022-10-09T13:57:12.334Z,98143.34
2022-10-09T13:59:39.363Z,98138.81
2022-10-09T14:02:06.125Z,98148.06
2022-10-09T14:04:32.957Z,98137.91
2022-10-09T14:06:59.670Z,98136.41
2022-10-09T14:09:26.706Z,98138.09
2022-10-09T14:11:53.479Z,98133.22
2022-10-09T14:14:22.212Z,98128.56
2022-10-09T14:16:50.542Z,98134.00
2022-10-09T14:19:17.969Z,98122.91
2022-10-09T14:21:46.659Z,98109.84
2022-10-09T14:24:14.333Z,98099.16
2022-10-09T14:26:41.179Z,98095.66
2022-10-09T14:29:09.658Z,98097.50
2022-10-09T14:31:36.449Z,98096.25
2022-10-09T14:34:03.192Z,98091.00
2022-10-09T14:36:30.089Z,98072.72
2022-10-09T14:39:00.758Z,98084.38
2022-10-09T14:41:28.534Z,98083.06
2022-10-09T14:43:59.276Z,98079.00
2022-10-09T14:46:28.629Z,98073.59
2022-10-09T14:48:57.691Z,98075.81
2022-10-09T14:51:27.065Z,98074.16
2022-10-09T14:53:58.288Z,98062.44
2022-10-09T14:56:27.233Z,98070.41
2022-10-09T14:58:54.322Z,98074.09
2022-10-09T15:01:22.661Z,98069.19
2022-10-09T15:03:49.548Z,98077.72
2022-10-09T15:06:19.989Z,98076.13
2022-10-09T15:08:46.692Z,98066.69
2022-10-09T15:11:13.405Z,98067.13
2022-10-09T15:13:40.535Z,98060.25
2022-10-09T15:16:12.727Z,98063.19
2022-10-09T15:18:40.066Z,98061.00
2022-10-09T15:21:18.666Z,98057.41
2022-10-09T15:23:46.476Z,98054.84
2022-10-09T15:26:14.590Z,98054.91
2022-10-09T15:28:43.449Z,98054.91
2022-10-09T15:31:17.063Z,98040.28
2022-10-09T15:33:43.746Z,98055.94
2022-10-09T15:36:10.555Z,98051.25
2022-10-09T15:38:37.355Z,98048.34
2022-10-09T15:41:04.143Z,98044.47
2022-10-09T15:43:37.521Z,98042.34
2022-10-09T15:46:05.913Z,98038.44
2022-10-09T15:48:32.611Z,98028.84
2022-10-09T15:51:06.800Z,98028.44
2022-10-09T15:53:33.542Z,98028.88
2022-10-09T15:56:06.165Z,98032.41
2022-10-09T15:58:33.096Z,98033.91
2022-10-09T16:01:12.273Z,98028.63
2022-10-09T16:03:39.703Z,98032.03
2022-10-09T16:06:11.884Z,98018.19
2022-10-09T16:08:39.324Z,98024.06
2022-10-09T16:11:10.065Z,98026.16
2022-10-09T16:13:39.737Z,98028.25
2022-10-09T16:16:16.499Z,98028.81
2022-10-09T16:18:43.684Z,98018.94
2022-10-09T16:21:16.142Z,98024.22
2022-10-09T16:23:44.065Z,98020.38
2022-10-09T16:26:14.383Z,98010.28
2022-10-09T16:28:41.161Z,98028.88
2022-10-09T16:31:07.939Z,98029.41
2022-10-09T16:33:35.038Z,98024.84
2022-10-09T16:36:12.787Z,98025.63
2022-10-09T16:38:40.544Z,98022.69
2022-10-09T16:41:12.330Z,98017.16
2022-10-09T16:43:39.501Z,98024.53
2022-10-09T16:46:28.302Z,98028.44
2022-10-09T16:48:56.992Z,98032.09
2022-10-09T16:51:31.358Z,98037.38
2022-10-09T16:54:03.183Z,98031.97
2022-10-09T16:56:34.648Z,98021.72
2022-10-09T16:59:06.603Z,98031.38
2022-10-09T17:01:38.030Z,98033.13
2022-10-09T17:04:04.905Z,98033.88
2022-10-09T17:06:31.900Z,98030.34
2022-10-09T17:08:59.835Z,98033.97
2022-10-09T17:11:29.699Z,98021.56
2022-10-09T17:13:57.193Z,98028.34
2022-10-09T17:16:30.084Z,98025.47
2022-10-09T17:18:57.863Z,98018.50
2022-10-09T17:21:27.825Z,98027.66
2022-10-09T17:24:01.690Z,98028.25
2022-10-09T17:26:29.327Z,98016.09
2022-10-09T17:28:59.074Z,98026.88
2022-10-09T17:31:26.831Z,98027.50
2022-10-09T17:33:57.827Z,98031.28
2022-10-09T17:36:28.730Z,98025.72
2022-10-09T17:38:55.698Z,98021.81
2022-10-09T17:41:25.574Z,98028.91
2022-10-09T17:43:54.923Z,98018.03
2022-10-09T17:46:23.670Z,98021.72
2022-10-09T17:48:53.580Z,98010.09
2022-10-09T17:51:42.143Z,98016.38
2022-10-09T17:54:17.133Z,98015.19
2022-10-09T17:56:44.377Z,98009.63
2022-10-09T17:59:11.294Z,98018.63
2022-10-09T18:01:39.243Z,98013.75
2022-10-09T18:04:06.061Z,98016.59
2022-10-09T18:06:34.701Z,98009.16
2022-10-09T18:09:02.144Z,98012.72
2022-10-09T18:11:29.898Z,98015.41
2022-10-09T18:13:57.010Z,98018.25
2022-10-09T18:16:35.318Z,98016.84
2022-10-09T18:19:18.196Z,98014.47
2022-10-09T18:21:48.419Z,98019.06
2022-10-09T18:24:15.289Z,98015.75
2022-10-09T18:26:43.176Z,98013.47
2022-10-09T18:29:10.514Z,98007.06
2022-10-09T18:31:38.407Z,98002.09
2022-10-09T18:34:05.390Z,97991.31
2022-10-09T18:36:34.014Z,97987.16
2022-10-09T18:39:07.517Z,97989.03
2022-10-09T18:41:36.607Z,97976.50
2022-10-09T18:44:05.237Z,97979.53
2022-10-09T18:46:39.725Z,97979.31
2022-10-09T18:49:11.674Z,97978.47
2022-10-09T18:51:42.087Z,97982.13
2022-10-09T18:54:13.240Z,97976.00
2022-10-09T18:56:43.007Z,97977.84
2022-10-09T18:59:14.913Z,97977.16
2022-10-09T19:01:41.747Z,97972.19
2022-10-09T19:04:08.524Z,97981.75
2022-10-09T19:06:35.727Z,97976.69
2022-10-09T19:09:02.784Z,97971.59
2022-10-09T19:11:32.719Z,97970.06
2022-10-09T19:14:00.842Z,97970.13
2022-10-09T19:16:33.262Z,97974.75
2022-10-09T19:19:00.265Z,97961.13
2022-10-09T19:21:27.343Z,97960.97
2022-10-09T19:23:54.545Z,97976.72
2022-10-09T19:26:23.019Z,97967.38
2022-10-09T19:28:49.833Z,97959.78
2022-10-09T19:31:16.869Z,97959.06
2022-10-09T19:33:43.698Z,97962.59
2022-10-09T19:36:13.025Z,97964.47
2022-10-09T19:38:41.160Z,97956.91
2022-10-09T19:41:15.413Z,97951.72
2022-10-09T19:43:42.754Z,97952.41
2022-10-09T19:46:20.691Z,97949.81
2022-10-09T19:48:47.468Z,97952.31
2022-10-09T19:51:21.474Z,97948.66
2022-10-09T19:53:49.897Z,97936.97
2022-10-09T19:56:27.417Z,97939.00
2022-10-09T19:58:56.306Z,97938.56
2022-10-09T20:01:26.811Z,97934.53
2022-10-09T20:04:05.386Z,97927.25
2022-10-09T20:06:32.297Z,97934.69
2022-10-09T20:08:59.038Z,97933.50
2022-10-09T20:11:26.819Z,97930.81
2022-10-09T20:13:56.158Z,97935.91
2022-10-09T20:16:24.845Z,97928.81
2022-10-09T20:18:51.684Z,97933.19
2022-10-09T20:21:18.907Z,97940.03
2022-10-09T20:23:45.917Z,97929.88
2022-10-09T20:26:19.540Z,97928.91
2022-10-09T20:28:48.157Z,97932.94
2022-10-09T20:31:19.432Z,97924.19
2022-10-09T20:33:47.973Z,97919.81
2022-10-09T20:36:33.355Z,97920.41
2022-10-09T20:39:04.474Z,97919.34
2022-10-09T20:41:32.591Z,97915.56
2022-10-09T20:44:02.759Z,97908.47
2022-10-09T20:46:33.359Z,97915.22
2022-10-09T20:49:04.934Z,97913.44
2022-10-09T20:51:34.746Z,97909.88
2022-10-09T20:54:02.327Z,97904.78
2022-10-09T20:56:31.838Z,97903.13
2022-10-09T20:58:59.739Z,97903.75
2022-10-09T21:01:28.119Z,97907.19
2022-10-09T21:03:59.215Z,97903.75
2022-10-09T21:06:26.424Z,97907.28
2022-10-09T21:08:53.274Z,97902.44
2022-10-09T21:11:20.331Z,97910.38
2022-10-09T21:13:48.675Z,97901.25
2022-10-09T21:16:22.754Z,97902.28
2022-10-09T21:18:59.844Z,97900.19
2022-10-09T21:21:28.530Z,97892.00
2022-10-09T21:23:58.829Z,97905.47
2022-10-09T21:26:27.344Z,97899.81
2022-10-09T21:28:59.005Z,97891.50
2022-10-09T21:31:29.508Z,97886.78
2022-10-09T21:33:57.967Z,97894.78
2022-10-09T21:37:01.799Z,97894.31
2022-10-09T21:39:29.891Z,97899.75
2022-10-09T21:41:56.657Z,97896.44
2022-10-09T21:44:23.362Z,97891.34
2022-10-09T21:46:50.160Z,97887.88
2022-10-09T21:49:25.698Z,97894.78
2022-10-09T21:51:53.038Z,97882.91
2022-10-09T21:54:20.841Z,97892.63
2022-10-09T21:56:47.644Z,97888.59
2022-10-09T21:59:14.339Z,97889.53
2022-10-09T22:01:41.083Z,97886.22
2022-10-09T22:04:07.918Z,97885.28
2022-10-09T22:06:34.626Z,97886.13
2022-10-09T22:09:01.360Z,97887.75
2022-10-09T22:11:28.191Z,97888.00
2022-10-09T22:13:56.015Z,97888.09
2022-10-09T22:16:23.057Z,97886.53
2022-10-09T22:18:49.744Z,97889.25
2022-10-09T22:21:18.197Z,97886.53
2022-10-09T22:23:45.200Z,97890.91
2022-10-09T22:26:16.881Z,97888.31
2022-10-09T22:28:45.801Z,97889.25
2022-10-09T22:31:23.459Z,97885.94
2022-10-09T22:33:59.328Z,97887.84
2022-10-09T22:36:31.107Z,97882.97
2022-10-09T22:39:02.293Z,97881.41
2022-10-09T22:41:30.652Z,97874.69
2022-10-09T22:43:59.576Z,97873.03
2022-10-09T22:46:37.027Z,97879.28
2022-10-09T22:49:04.578Z,97876.91
2022-10-09T22:51:31.567Z,97883.97
2022-10-09T22:53:59.573Z,97875.47
2022-10-09T22:56:31.747Z,97873.81
2022-10-09T22:58:59.060Z,97869.66
2022-10-09T23:01:31.041Z,97883.72
2022-10-09T23:04:05.132Z,97869.28
2022-10-09T23:06:32.790Z,97879.66
2022-10-09T23:09:00.199Z,97873.88
2022-10-09T23:11:27.684Z,97881.06
2022-10-09T23:13:57.718Z,97877.88
2022-10-09T23:16:26.167Z,97865.81
2022-10-09T23:18:53.123Z,97872.75
2022-10-09T23:21:22.884Z,97877.13
2022-10-09T23:23:50.835Z,97879.72
2022-10-09T23:26:21.878Z,97881.41
2022-10-09T23:28:59.650Z,97885.53
2022-10-09T23:31:28.368Z,97875.16
2022-10-09T23:33:56.688Z,97878.69
2022-10-09T23:36:27.521Z,97880.34
2022-10-09T23:38:55.414Z,97878.69
2022-10-09T23:41:25.246Z,97882.94
2022-10-09T23:43:52.498Z,97878.69
2022-10-09T23:46:27.692Z,97872.66
2022-10-09T23:48:55.608Z,97876.22
2022-10-09T23:51:24.781Z,97878.19
2022-10-09T23:53:52.070Z,97878.19
2022-10-09T23:56:29.686Z,97875.81
2022-10-09T23:58:59.092Z,97860.72
